createdAt,value
2022-12-08T00:02:28.446Z,100503.22
2022-12-08T00:05:49.561Z,100508.13
2022-12-08T00:09:10.967Z,100491.13
2022-12-08T00:12:17.714Z,100503.16
2022-12-08T00:15:20.139Z,100502.38
2022-12-08T00:18:22.897Z,100504.94
2022-12-08T00:21:25.354Z,100501.72
2022-12-08T00:24:31.479Z,100499.94
2022-12-08T00:27:33.982Z,100498.25
2022-12-08T00:30:40.112Z,100513.63
2022-12-08T00:33:42.605Z,100481.66
2022-12-08T00:36:45.502Z,100499.50
2022-12-08T00:39:48.187Z,100499.81
2022-12-08T00:42:50.626Z,100496.97
2022-12-08T00:45:53.156Z,100509.19
2022-12-08T00:48:55.631Z,100505.53
2022-12-08T00:51:58.097Z,100498.09
2022-12-08T00:55:00.701Z,100498.91
2022-12-08T00:58:03.172Z,100497.25
2022-12-08T01:01:11.004Z,100509.78
2022-12-08T01:04:18.483Z,100496.28
2022-12-08T01:07:20.947Z,100489.91
2022-12-08T01:10:23.580Z,100500.78
2022-12-08T01:13:26.003Z,100522.00
2022-12-08T01:16:31.201Z,100539.25
2022-12-08T01:19:33.847Z,100526.13
2022-12-08T01:22:36.267Z,100518.19
2022-12-08T01:25:38.657Z,100519.59
2022-12-08T01:28:41.826Z,100518.31
2022-12-08T01:31:44.235Z,100506.44
2022-12-08T01:34:46.823Z,100504.13
2022-12-08T01:37:50.195Z,100522.75
2022-12-08T01:40:52.600Z,100486.91
2022-12-08T01:44:08.299Z,100528.56
2022-12-08T01:47:11.719Z,100505.91
2022-12-08T01:50:16.120Z,100498.91
2022-12-08T01:53:30.805Z,100523.88
2022-12-08T01:56:40.621Z,100519.63
2022-12-08T01:59:52.389Z,100509.94
2022-12-08T02:03:00.852Z,100494.38
2022-12-08T02:06:04.008Z,100518.56
2022-12-08T02:09:06.802Z,100509.03
2022-12-08T02:12:10.325Z,100496.28
2022-12-08T02:15:13.019Z,100496.22
2022-12-08T02:18:35.513Z,100516.53
2022-12-08T02:21:58.660Z,100540.13
2022-12-08T02:25:25.365Z,100528.28
2022-12-08T02:29:29.709Z,100510.84
2022-12-08T02:32:53.646Z,100535.69
2022-12-08T02:35:58.925Z,100528.00
2022-12-08T02:39:12.009Z,100524.53
2022-12-08T02:42:14.327Z,100520.69
2022-12-08T02:45:26.872Z,100526.97
2022-12-08T02:48:29.962Z,100502.75
2022-12-08T02:51:32.435Z,100504.94
2022-12-08T02:54:36.510Z,100498.41
2022-12-08T02:58:00.600Z,100504.06
2022-12-08T03:01:23.121Z,100526.22
2022-12-08T03:04:34.633Z,100517.75
2022-12-08T03:07:53.995Z,100519.34
2022-12-08T03:11:00.065Z,100508.53
2022-12-08T03:14:04.387Z,100515.13
2022-12-08T03:17:07.219Z,100537.13
2022-12-08T03:20:13.251Z,100533.16
2022-12-08T03:23:17.628Z,100536.00
2022-12-08T03:26:28.871Z,100542.69
2022-12-08T03:29:32.545Z,100542.03
2022-12-08T03:32:49.461Z,100521.19
2022-12-08T03:35:53.120Z,100516.56
2022-12-08T03:38:55.663Z,100523.25
2022-12-08T03:41:58.939Z,100515.75
2022-12-08T03:45:01.282Z,100515.06
2022-12-08T03:48:03.775Z,100531.78
2022-12-08T03:51:06.287Z,100543.00
2022-12-08T03:54:08.746Z,100533.94
2022-12-08T03:57:11.233Z,100533.19
2022-12-08T04:00:15.928Z,100543.22
2022-12-08T04:03:18.434Z,100530.94
2022-12-08T04:06:21.761Z,100539.84
2022-12-08T04:09:24.194Z,100497.81
2022-12-08T04:12:26.575Z,100528.94
2022-12-08T04:15:29.081Z,100535.13
2022-12-08T04:18:32.304Z,100539.22
2022-12-08T04:21:34.717Z,100545.97
2022-12-08T04:24:37.139Z,100522.06
2022-12-08T04:27:39.630Z,100546.94
2022-12-08T04:30:42.242Z,100549.63
2022-12-08T04:33:45.067Z,100544.19
2022-12-08T04:36:47.449Z,100519.25
2022-12-08T04:39:50.849Z,100535.25
2022-12-08T04:42:53.260Z,100526.22
2022-12-08T04:45:56.028Z,100547.69
2022-12-08T04:48:58.851Z,100525.81
2022-12-08T04:52:01.297Z,100513.09
2022-12-08T04:55:04.467Z,100528.31
2022-12-08T04:58:06.980Z,100511.81
2022-12-08T05:01:09.559Z,100527.31
2022-12-08T05:04:12.032Z,100532.09
2022-12-08T05:07:14.420Z,100517.25
2022-12-08T05:10:17.107Z,100536.44
2022-12-08T05:13:19.565Z,100522.47
2022-12-08T05:16:22.065Z,100538.41
2022-12-08T05:19:24.766Z,100499.56
2022-12-08T05:22:27.179Z,100529.06
2022-12-08T05:25:29.695Z,100509.72
2022-12-08T05:28:41.157Z,100531.59
2022-12-08T05:31:44.607Z,100531.41
2022-12-08T05:34:47.070Z,100544.03
2022-12-08T05:37:49.583Z,100539.69
2022-12-08T05:40:52.037Z,100529.91
2022-12-08T05:43:54.501Z,100534.13
2022-12-08T05:46:56.939Z,100520.97
2022-12-08T05:49:59.351Z,100543.13
2022-12-08T05:53:01.820Z,100537.34
2022-12-08T05:56:04.395Z,100533.94
2022-12-08T05:59:07.633Z,100543.72
2022-12-08T06:02:10.352Z,100546.25
2022-12-08T06:05:12.939Z,100550.09
2022-12-08T06:08:15.585Z,100555.84
2022-12-08T06:11:26.667Z,100555.69
2022-12-08T06:14:29.258Z,100547.63
2022-12-08T06:17:31.701Z,100568.22
2022-12-08T06:20:34.784Z,100568.56
2022-12-08T06:23:37.906Z,100567.63
2022-12-08T06:26:41.497Z,100569.50
2022-12-08T06:29:43.931Z,100574.00
2022-12-08T06:32:46.373Z,100565.78
2022-12-08T06:35:48.821Z,100564.81
2022-12-08T06:38:51.258Z,100570.88
2022-12-08T06:42:11.916Z,100563.59
2022-12-08T06:45:16.712Z,100588.16
2022-12-08T06:48:19.460Z,100578.00
2022-12-08T06:51:23.481Z,100576.41
2022-12-08T06:54:26.629Z,100582.22
2022-12-08T06:57:29.145Z,100573.94
2022-12-08T07:00:31.600Z,100591.09
2022-12-08T07:03:34.149Z,100601.00
2022-12-08T07:06:36.920Z,100589.47
2022-12-08T07:09:39.480Z,100600.25
2022-12-08T07:12:41.975Z,100607.16
2022-12-08T07:15:44.661Z,100607.16
2022-12-08T07:18:47.116Z,100609.84
2022-12-08T07:21:49.820Z,100604.47
2022-12-08T07:24:52.284Z,100602.94
2022-12-08T07:27:54.823Z,100589.84
2022-12-08T07:30:57.314Z,100614.06
2022-12-08T07:34:00.536Z,100615.63
2022-12-08T07:37:02.969Z,100621.88
2022-12-08T07:40:07.596Z,100621.06
2022-12-08T07:43:10.244Z,100596.81
2022-12-08T07:46:14.661Z,100621.19
2022-12-08T07:49:17.300Z,100629.78
2022-12-08T07:52:19.852Z,100629.78
2022-12-08T07:55:22.292Z,100629.06
2022-12-08T07:58:25.777Z,100622.91
2022-12-08T08:01:30.759Z,100623.47
2022-12-08T08:04:33.417Z,100636.84
2022-12-08T08:07:37.242Z,100629.56
2022-12-08T08:10:39.833Z,100610.31
2022-12-08T08:13:42.253Z,100615.44
2022-12-08T08:16:47.456Z,100599.66
2022-12-08T08:19:50.104Z,100617.84
2022-12-08T08:22:52.659Z,100595.59
2022-12-08T08:25:55.065Z,100612.19
2022-12-08T08:28:57.635Z,100617.41
2022-12-08T08:32:00.285Z,100619.44
2022-12-08T08:35:06.242Z,100621.63
2022-12-08T08:38:08.808Z,100633.19
2022-12-08T08:41:11.645Z,100627.75
2022-12-08T08:44:15.058Z,100623.72
2022-12-08T08:47:17.487Z,100612.59
2022-12-08T08:50:19.876Z,100618.09
2022-12-08T08:53:22.939Z,100618.69
2022-12-08T08:56:26.104Z,100604.03
2022-12-08T08:59:29.042Z,100587.34
2022-12-08T09:02:31.541Z,100611.22
2022-12-08T09:05:34.169Z,100607.56
2022-12-08T09:08:36.553Z,100583.78
2022-12-08T09:11:40.714Z,100575.13
2022-12-08T09:14:43.201Z,100589.56
2022-12-08T09:17:45.686Z,100604.50
2022-12-08T09:20:48.126Z,100585.44
2022-12-08T09:23:52.869Z,100588.50
2022-12-08T09:26:55.295Z,100579.63
2022-12-08T09:29:57.993Z,100575.41
2022-12-08T09:33:00.654Z,100572.81
2022-12-08T09:36:04.043Z,100574.16
2022-12-08T09:39:07.248Z,100589.88
2022-12-08T09:42:10.450Z,100584.91
2022-12-08T09:45:14.860Z,100570.25
2022-12-08T09:48:33.408Z,100578.91
2022-12-08T09:51:38.766Z,100575.53
2022-12-08T09:54:41.339Z,100585.47
2022-12-08T09:57:44.828Z,100577.88
2022-12-08T10:00:47.632Z,100572.38
2022-12-08T10:03:50.198Z,100569.50
2022-12-08T10:06:52.557Z,100565.56
2022-12-08T10:10:03.707Z,100564.19
2022-12-08T10:13:24.481Z,100559.25
2022-12-08T10:16:37.089Z,100550.75
2022-12-08T10:19:40.938Z,100534.03
2022-12-08T10:22:45.096Z,100534.00
2022-12-08T10:25:49.946Z,100531.38
2022-12-08T10:28:52.688Z,100526.56
2022-12-08T10:31:59.991Z,100513.22
2022-12-08T10:35:08.431Z,100476.66
2022-12-08T10:38:21.645Z,100487.03
2022-12-08T10:41:24.966Z,100508.19
2022-12-08T10:44:27.492Z,100496.06
2022-12-08T10:47:30.640Z,100491.00
2022-12-08T10:50:46.434Z,100504.41
2022-12-08T10:53:48.915Z,100492.09
2022-12-08T10:56:55.905Z,100500.50
2022-12-08T10:59:59.070Z,100493.91
2022-12-08T11:03:05.340Z,100506.31
2022-12-08T11:06:15.824Z,100486.28
2022-12-08T11:09:18.548Z,100496.06
2022-12-08T11:12:22.516Z,100490.78
2022-12-08T11:15:33.290Z,100491.84
2022-12-08T11:18:44.656Z,100476.88
2022-12-08T11:21:47.817Z,100487.16
2022-12-08T11:25:03.674Z,100479.41
2022-12-08T11:28:09.886Z,100467.94
2022-12-08T11:31:21.150Z,100464.03
2022-12-08T11:35:02.063Z,100468.38
2022-12-08T11:38:21.536Z,100456.75
2022-12-08T11:41:29.054Z,100436.84
2022-12-08T11:44:51.608Z,100451.31
2022-12-08T11:48:21.787Z,100451.56
2022-12-08T11:51:29.751Z,100455.22
2022-12-08T11:54:53.469Z,100454.91
2022-12-08T11:57:57.927Z,100455.81
2022-12-08T12:01:01.498Z,100446.50
2022-12-08T12:04:19.899Z,100440.50
2022-12-08T12:07:37.772Z,100425.00
2022-12-08T12:10:58.332Z,100431.97
2022-12-08T12:14:21.493Z,100428.00
2022-12-08T12:17:48.399Z,100436.28
2022-12-08T12:20:58.370Z,100423.03
2022-12-08T12:24:06.682Z,100420.69
2022-12-08T12:27:23.767Z,100412.22
2022-12-08T12:30:28.168Z,100391.25
2022-12-08T12:33:31.472Z,100407.81
2022-12-08T12:37:03.272Z,100396.16
2022-12-08T12:40:28.171Z,100389.06
2022-12-08T12:43:36.336Z,100373.78
2022-12-08T12:46:50.888Z,100393.44
2022-12-08T12:50:05.778Z,100377.25
2022-12-08T12:53:37.533Z,100378.00
2022-12-08T12:56:48.502Z,100357.41
2022-12-08T12:59:55.826Z,100358.44
2022-12-08T13:02:59.163Z,100346.16
2022-12-08T13:06:02.423Z,100339.72
2022-12-08T13:09:07.291Z,100352.31
2022-12-08T13:12:20.268Z,100363.25
2022-12-08T13:15:22.799Z,100359.31
2022-12-08T13:18:28.742Z,100343.41
2022-12-08T13:21:38.854Z,100377.91
2022-12-08T13:24:42.274Z,100387.00
2022-12-08T13:27:53.124Z,100377.09
2022-12-08T13:31:02.963Z,100375.50
2022-12-08T13:34:07.275Z,100400.28
2022-12-08T13:37:13.710Z,100402.38
2022-12-08T13:40:24.400Z,100396.06
2022-12-08T13:43:47.280Z,100386.13
2022-12-08T13:47:25.073Z,100385.34
2022-12-08T13:57:29.992Z,100381.78
2022-12-08T14:00:32.874Z,100392.22
2022-12-08T14:04:12.904Z,100385.44
2022-12-08T14:07:13.003Z,100370.56
2022-12-08T14:10:22.598Z,100354.09
2022-12-08T14:13:25.032Z,100349.66
2022-12-08T14:16:37.653Z,100329.31
2022-12-08T14:19:43.497Z,100315.75
2022-12-08T14:22:46.728Z,100317.81
2022-12-08T14:25:49.165Z,100312.34
2022-12-08T14:28:51.734Z,100316.81
2022-12-08T14:31:54.189Z,100327.72
2022-12-08T14:35:18.870Z,100349.13
2022-12-08T14:38:22.885Z,100351.75
2022-12-08T14:41:32.416Z,100335.00
2022-12-08T14:44:39.085Z,100324.31
2022-12-08T14:47:41.691Z,100329.81
2022-12-08T14:51:01.897Z,100346.72
2022-12-08T14:54:14.244Z,100331.59
2022-12-08T14:57:16.893Z,100345.41
2022-12-08T15:00:21.074Z,100332.34
2022-12-08T15:03:24.748Z,100321.91
2022-12-08T15:06:27.222Z,100335.75
2022-12-08T15:09:31.096Z,100330.28
2022-12-08T15:12:33.573Z,100322.19
2022-12-08T15:15:47.552Z,100309.16
2022-12-08T15:19:02.476Z,100308.16
2022-12-08T15:22:14.054Z,100299.00
2022-12-08T15:25:16.536Z,100316.22
2022-12-08T15:28:23.984Z,100305.78
2022-12-08T15:31:29.128Z,100297.69
2022-12-08T15:34:31.680Z,100317.19
2022-12-08T15:37:34.128Z,100302.81
2022-12-08T15:40:36.542Z,100311.13
2022-12-08T15:43:38.893Z,100296.78
2022-12-08T15:46:41.307Z,100305.09
2022-12-08T15:49:44.099Z,100292.63
2022-12-08T15:52:47.485Z,100298.66
2022-12-08T15:56:19.089Z,100307.72
2022-12-08T15:59:20.934Z,100302.78
2022-12-08T16:02:25.241Z,100282.97
2022-12-08T16:06:01.739Z,100278.50
2022-12-08T16:09:06.150Z,100280.25
2022-12-08T16:16:07.917Z,100256.22
2022-12-08T16:19:14.240Z,100234.19
2022-12-08T16:26:17.089Z,100209.34
2022-12-08T16:29:11.062Z,100229.66
2022-12-08T16:32:14.826Z,100229.72
2022-12-08T16:35:17.476Z,100231.00
2022-12-08T16:38:19.925Z,100249.97
2022-12-08T16:41:40.721Z,100245.41
2022-12-08T16:44:43.168Z,100242.25
2022-12-08T16:47:56.585Z,100228.50
2022-12-08T16:50:59.062Z,100230.56
2022-12-08T16:54:01.468Z,100223.50
2022-12-08T16:57:03.914Z,100211.75
2022-12-08T17:00:09.126Z,100212.00
2022-12-08T17:03:14.754Z,100242.34
2022-12-08T17:06:18.828Z,100234.41
2022-12-08T17:09:21.387Z,100243.97
2022-12-08T17:12:23.883Z,100224.97
2022-12-08T17:15:26.345Z,100229.97
2022-12-08T17:18:29.095Z,100219.75
2022-12-08T17:21:32.146Z,100226.50
2022-12-08T17:24:34.612Z,100191.38
2022-12-08T17:27:37.988Z,100206.22
2022-12-08T17:30:40.391Z,100215.81
2022-12-08T17:33:43.149Z,100219.75
2022-12-08T17:36:45.648Z,100201.13
2022-12-08T17:39:48.374Z,100216.97
2022-12-08T17:42:50.734Z,100181.38
2022-12-08T17:45:53.509Z,100190.63
2022-12-08T17:48:56.290Z,100172.47
2022-12-08T17:52:01.512Z,100196.66
2022-12-08T17:55:04.200Z,100198.22
2022-12-08T17:58:07.748Z,100203.81
2022-12-08T18:01:11.289Z,100193.63
2022-12-08T18:04:13.875Z,100185.16
2022-12-08T18:07:16.341Z,100168.44
2022-12-08T18:10:19.366Z,100175.25
2022-12-08T18:13:22.021Z,100180.19
2022-12-08T18:16:26.176Z,100163.75
2022-12-08T18:19:28.956Z,100163.13
2022-12-08T18:22:32.609Z,100150.75
2022-12-08T18:25:35.906Z,100154.72
2022-12-08T18:28:38.922Z,100162.50
2022-12-08T18:31:41.352Z,100162.38
2022-12-08T18:34:43.857Z,100159.81
2022-12-08T18:37:47.076Z,100164.13
2022-12-08T18:40:49.793Z,100147.75
2022-12-08T18:43:53.484Z,100166.59
2022-12-08T18:46:56.198Z,100179.19
2022-12-08T18:50:00.200Z,100178.47
2022-12-08T18:53:02.849Z,100176.72
2022-12-08T18:56:06.247Z,100184.94
2022-12-08T18:59:12.006Z,100175.38
2022-12-08T19:02:14.982Z,100176.41
2022-12-08T19:05:17.647Z,100186.19
2022-12-08T19:08:20.726Z,100184.63
2022-12-08T19:11:25.894Z,100184.84
2022-12-08T19:14:30.441Z,100182.09
2022-12-08T19:17:33.232Z,100178.56
2022-12-08T19:20:36.226Z,100167.78
2022-12-08T19:23:40.151Z,100172.47
2022-12-08T19:26:43.273Z,100139.47
2022-12-08T19:29:45.952Z,100159.19
2022-12-08T19:32:50.124Z,100159.66
2022-12-08T19:35:53.814Z,100121.97
2022-12-08T19:39:15.081Z,100150.66
2022-12-08T19:42:38.208Z,100126.88
2022-12-08T19:45:40.980Z,100154.28
2022-12-08T19:48:44.215Z,100131.19
2022-12-08T19:51:47.011Z,100146.91
2022-12-08T19:54:49.616Z,100149.16
2022-12-08T19:57:52.664Z,100128.28
2022-12-08T20:00:55.581Z,100125.44
2022-12-08T20:03:58.228Z,100133.41
2022-12-08T20:07:02.133Z,100140.75
2022-12-08T20:10:07.960Z,100163.84
2022-12-08T20:13:29.990Z,100177.59
2022-12-08T20:16:32.837Z,100152.38
2022-12-08T20:19:35.618Z,100147.47
2022-12-08T20:22:38.736Z,100142.19
2022-12-08T20:25:43.140Z,100154.06
2022-12-08T20:28:45.963Z,100127.38
2022-12-08T20:31:48.891Z,100144.28
2022-12-08T20:34:52.031Z,100143.38
2022-12-08T20:37:54.698Z,100136.16
2022-12-08T20:40:58.516Z,100148.47
2022-12-08T20:44:01.635Z,100137.78
2022-12-08T20:47:04.378Z,100147.78
2022-12-08T20:50:08.596Z,100128.78
2022-12-08T20:53:11.578Z,100148.41
2022-12-08T20:56:19.236Z,100149.97
2022-12-08T20:59:21.978Z,100153.16
2022-12-08T21:02:28.012Z,100147.97
2022-12-08T21:05:31.044Z,100160.53
2022-12-08T21:08:33.674Z,100142.31
2022-12-08T21:11:36.546Z,100151.25
2022-12-08T21:14:40.107Z,100157.97
2022-12-08T21:17:42.709Z,100150.41
2022-12-08T21:20:45.500Z,100153.28
2022-12-08T21:23:48.092Z,100153.22
2022-12-08T21:26:50.730Z,100137.44
2022-12-08T21:29:53.246Z,100157.59
2022-12-08T21:32:55.967Z,100147.41
2022-12-08T21:36:03.183Z,100151.66
2022-12-08T21:39:11.305Z,100157.94
2022-12-08T21:42:34.220Z,100145.84
2022-12-08T21:45:37.189Z,100152.72
2022-12-08T21:48:39.761Z,100127.72
2022-12-08T21:51:43.186Z,100144.84
2022-12-08T21:54:45.810Z,100129.28
2022-12-08T21:57:48.247Z,100130.59
2022-12-08T22:00:50.742Z,100131.53
2022-12-08T22:03:53.462Z,100115.25
2022-12-08T22:06:56.132Z,100110.91
2022-12-08T22:09:58.528Z,100130.47
2022-12-08T22:13:00.912Z,100128.22
2022-12-08T22:16:08.091Z,100120.66
2022-12-08T22:19:10.695Z,100131.19
2022-12-08T22:22:16.237Z,100119.53
2022-12-08T22:25:18.785Z,100137.22
2022-12-08T22:28:21.163Z,100119.88
2022-12-08T22:31:23.735Z,100098.97
2022-12-08T22:34:26.250Z,100110.50
2022-12-08T22:37:28.604Z,100119.44
2022-12-08T22:40:31.141Z,100111.66
2022-12-08T22:43:34.035Z,100123.13
2022-12-08T22:46:36.512Z,100115.81
2022-12-08T22:49:38.973Z,100125.25
2022-12-08T22:52:41.687Z,100121.41
2022-12-08T22:55:44.752Z,100106.69
2022-12-08T22:58:48.642Z,100097.69
2022-12-08T23:01:51.053Z,100110.09
2022-12-08T23:04:56.970Z,100086.44
2022-12-08T23:07:59.950Z,100108.44
2022-12-08T23:11:02.533Z,100097.38
2022-12-08T23:14:04.952Z,100101.13
2022-12-08T23:17:08.213Z,100082.34
2022-12-08T23:20:11.834Z,100077.63
2022-12-08T23:23:14.447Z,100087.53
2022-12-08T23:26:19.019Z,100108.72
2022-12-08T23:29:21.786Z,100108.72
2022-12-08T23:32:24.746Z,100095.00
2022-12-08T23:35:27.474Z,100106.53
2022-12-08T23:38:30.321Z,100099.19
2022-12-08T23:41:33.198Z,100093.22
2022-12-08T23:44:35.772Z,100089.75
2022-12-08T23:47:38.266Z,100087.09
2022-12-08T23:50:40.640Z,100087.88
2022-12-08T23:53:44.074Z,100097.78
2022-12-08T23:56:46.773Z,100113.44
2022-12-08T23:59:49.344Z,100116.59
